LAN168 SCEL-SCDA
Flight info
| Callsign | LAN168 |
|---|---|
| Flight time | 2h 2m |
| Altitude | 34000 |
| Route | DONT5B DONTI UQ802 GAXIR DCT |
| Aircraft | A320/L-SDLE/L |
Departure
| Time | 2026-05-03 23:40 |
|---|---|
| Airport | Comodoro Arturo Merino Benítez International Airport (SCEL) |
Arrival
| Time | 2026-05-04 01:43 |
|---|---|
| Airport | Diego Aracena International Airport (SCDA) |
| Time | Latitude | Longitude | Altitude | Speed | Heading |
|---|---|---|---|---|---|
| 2026-05-03 22:54 | -33.39742 | -70.79736 | 1565 ft | 0 kts | 355° |
| 2026-05-03 23:26 | -33.39759 | -70.79735 | 1565 ft | 2 kts | 355° |
| 2026-05-03 23:26 | -33.39776 | -70.79733 | 1565 ft | 2 kts | 355° |
| 2026-05-03 23:26 | -33.39793 | -70.79731 | 1565 ft | 2 kts | 355° |
| 2026-05-03 23:27 | -33.39808 | -70.79724 | 1565 ft | 2 kts | 287° |
| 2026-05-03 23:27 | -33.39810 | -70.79719 | 1565 ft | 0 kts | 272° |
| 2026-05-03 23:33 | -33.39809 | -70.79750 | 1565 ft | 5 kts | 271° |
| 2026-05-03 23:33 | -33.39816 | -70.79788 | 1565 ft | 5 kts | 251° |
| 2026-05-03 23:33 | -33.39825 | -70.79829 | 1565 ft | 7 kts | 256° |
| 2026-05-03 23:34 | -33.39844 | -70.79923 | 1565 ft | 14 kts | 264° |
| 2026-05-03 23:34 | -33.39837 | -70.80017 | 1566 ft | 8 kts | 317° |
| 2026-05-03 23:34 | -33.39783 | -70.80029 | 1566 ft | 10 kts | 355° |
| 2026-05-03 23:34 | -33.39683 | -70.80035 | 1566 ft | 18 kts | 358° |
| 2026-05-03 23:35 | -33.39529 | -70.80043 | 1566 ft | 25 kts | 358° |
| 2026-05-03 23:35 | -33.39336 | -70.80053 | 1566 ft | 30 kts | 357° |
| 2026-05-03 23:35 | -33.39108 | -70.80068 | 1566 ft | 35 kts | 357° |
| 2026-05-03 23:35 | -33.38855 | -70.80081 | 1567 ft | 37 kts | 357° |
| 2026-05-03 23:36 | -33.38591 | -70.80095 | 1567 ft | 40 kts | 357° |
| 2026-05-03 23:36 | -33.38311 | -70.80111 | 1566 ft | 40 kts | 357° |
| 2026-05-03 23:36 | -33.38029 | -70.80126 | 1566 ft | 41 kts | 357° |
| 2026-05-03 23:36 | -33.37746 | -70.80140 | 1566 ft | 41 kts | 358° |
| 2026-05-03 23:37 | -33.37462 | -70.80155 | 1566 ft | 41 kts | 358° |
| 2026-05-03 23:37 | -33.37213 | -70.80168 | 1567 ft | 25 kts | 357° |
| 2026-05-03 23:37 | -33.37112 | -70.80226 | 1568 ft | 11 kts | 298° |
| 2026-05-03 23:37 | -33.37111 | -70.80231 | 1568 ft | 0 kts | 295° |
| 2026-05-03 23:38 | -33.37110 | -70.80233 | 1568 ft | 2 kts | 295° |
| 2026-05-03 23:38 | -33.37109 | -70.80314 | 1573 ft | 11 kts | 251° |
| 2026-05-03 23:39 | -33.37169 | -70.80372 | 1574 ft | 13 kts | 192° |
| 2026-05-03 23:39 | -33.37202 | -70.80374 | 1573 ft | 0 kts | 179° |
| 2026-05-03 23:39 | -33.37206 | -70.80374 | 1573 ft | 2 kts | 178° |
| 2026-05-03 23:39 | -33.37286 | -70.80369 | 1573 ft | 38 kts | 177° |
| 2026-05-03 23:40 | -33.37789 | -70.80343 | 1572 ft | 102 kts | 177° |
| 2026-05-03 23:40 | -33.38685 | -70.80294 | 1575 ft | 153 kts | 177° |
| 2026-05-03 23:40 | -33.39827 | -70.80219 | 1853 ft | 175 kts | 176° |
| 2026-05-03 23:40 | -33.41102 | -70.80123 | 2326 ft | 194 kts | 176° |
| 2026-05-03 23:41 | -33.42484 | -70.79987 | 2985 ft | 200 kts | 175° |
| 2026-05-03 23:41 | -33.43885 | -70.79819 | 3572 ft | 212 kts | 174° |
| 2026-05-03 23:41 | -33.45399 | -70.79656 | 4276 ft | 222 kts | 176° |
| 2026-05-03 23:41 | -33.46997 | -70.79801 | 4885 ft | 237 kts | 194° |
| 2026-05-03 23:42 | -33.48579 | -70.80587 | 5021 ft | 263 kts | 215° |
| 2026-05-03 23:42 | -33.49898 | -70.82169 | 5403 ft | 273 kts | 235° |
| 2026-05-03 23:42 | -33.50744 | -70.84211 | 6016 ft | 272 kts | 255° |
| 2026-05-03 23:42 | -33.50961 | -70.86415 | 6838 ft | 262 kts | 276° |
| 2026-05-03 23:43 | -33.50514 | -70.88587 | 7132 ft | 276 kts | 297° |
| 2026-05-03 23:43 | -33.49625 | -70.90599 | 7808 ft | 274 kts | 299° |
| 2026-05-03 23:43 | -33.48724 | -70.92615 | 8271 ft | 277 kts | 299° |
| 2026-05-03 23:43 | -33.47791 | -70.94650 | 8863 ft | 280 kts | 302° |
| 2026-05-03 23:44 | -33.46758 | -70.96620 | 8997 ft | 278 kts | 305° |
| 2026-05-03 23:44 | -33.45562 | -70.98433 | 9069 ft | 278 kts | 316° |
| 2026-05-03 23:44 | -33.43968 | -70.99750 | 9821 ft | 280 kts | 335° |
| 2026-05-03 23:44 | -33.42157 | -71.00593 | 10628 ft | 280 kts | 339° |
| 2026-05-03 23:45 | -33.40308 | -71.01362 | 11340 ft | 283 kts | 339° |
| 2026-05-03 23:45 | -33.38535 | -71.02064 | 11955 ft | 290 kts | 339° |
| 2026-05-03 23:45 | -33.36545 | -71.02839 | 12144 ft | 313 kts | 340° |
| 2026-05-03 23:45 | -33.34407 | -71.03667 | 12419 ft | 330 kts | 340° |
| 2026-05-03 23:46 | -33.32196 | -71.04521 | 13023 ft | 336 kts | 339° |
| 2026-05-03 23:46 | -33.29971 | -71.05384 | 13693 ft | 340 kts | 339° |
| 2026-05-03 23:46 | -33.27696 | -71.06267 | 14318 ft | 344 kts | 338° |
| 2026-05-03 23:46 | -33.25411 | -71.07154 | 14880 ft | 347 kts | 338° |
| 2026-05-03 23:47 | -33.23097 | -71.08054 | 15437 ft | 352 kts | 338° |
| 2026-05-03 23:47 | -33.20762 | -71.08968 | 15990 ft | 356 kts | 337° |
| 2026-05-03 23:47 | -33.18391 | -71.09895 | 16528 ft | 360 kts | 336° |
| 2026-05-03 23:47 | -33.15997 | -71.10833 | 17115 ft | 364 kts | 336° |
| 2026-05-03 23:48 | -33.13586 | -71.11774 | 17667 ft | 365 kts | 336° |
| 2026-05-03 23:48 | -33.11163 | -71.12714 | 18150 ft | 369 kts | 335° |
| 2026-05-03 23:48 | -33.08708 | -71.13668 | 18580 ft | 374 kts | 335° |
| 2026-05-03 23:48 | -33.06256 | -71.14621 | 19015 ft | 376 kts | 335° |
| 2026-05-03 23:49 | -33.03757 | -71.15594 | 19531 ft | 379 kts | 335° |
| 2026-05-03 23:49 | -33.01245 | -71.16572 | 20020 ft | 381 kts | 335° |
| 2026-05-03 23:49 | -32.98712 | -71.17556 | 20531 ft | 384 kts | 335° |
| 2026-05-03 23:49 | -32.96152 | -71.18512 | 21027 ft | 390 kts | 338° |
| 2026-05-03 23:50 | -32.93432 | -71.19031 | 21543 ft | 402 kts | 348° |
| 2026-05-03 23:50 | -32.90608 | -71.19107 | 22056 ft | 407 kts | 351° |
| 2026-05-03 23:50 | -32.87762 | -71.19160 | 22550 ft | 411 kts | 351° |
| 2026-05-03 23:50 | -32.84897 | -71.19213 | 23024 ft | 414 kts | 351° |
| 2026-05-03 23:51 | -32.82005 | -71.19268 | 23491 ft | 417 kts | 351° |
| 2026-05-03 23:51 | -32.79098 | -71.19319 | 23889 ft | 419 kts | 351° |
| 2026-05-03 23:51 | -32.76170 | -71.19368 | 24241 ft | 422 kts | 351° |
| 2026-05-03 23:51 | -32.73227 | -71.19421 | 24601 ft | 425 kts | 351° |
| 2026-05-03 23:52 | -32.70265 | -71.19477 | 24960 ft | 427 kts | 351° |
| 2026-05-03 23:52 | -32.67283 | -71.19532 | 25325 ft | 429 kts | 351° |
| 2026-05-03 23:52 | -32.64293 | -71.19583 | 25688 ft | 431 kts | 351° |
| 2026-05-03 23:52 | -32.61284 | -71.19635 | 26046 ft | 434 kts | 351° |
| 2026-05-03 23:53 | -32.58258 | -71.19690 | 26401 ft | 436 kts | 350° |
| 2026-05-03 23:53 | -32.55220 | -71.19747 | 26744 ft | 438 kts | 350° |
| 2026-05-03 23:53 | -32.52166 | -71.19807 | 27074 ft | 440 kts | 350° |
| 2026-05-03 23:53 | -32.49097 | -71.19868 | 27399 ft | 442 kts | 350° |
| 2026-05-03 23:54 | -32.46020 | -71.19926 | 27707 ft | 444 kts | 350° |
| 2026-05-03 23:54 | -32.42966 | -71.19981 | 28023 ft | 446 kts | 350° |
| 2026-05-03 23:54 | -32.39857 | -71.20036 | 28357 ft | 448 kts | 350° |
| 2026-05-03 23:54 | -32.36696 | -71.20088 | 28638 ft | 449 kts | 350° |
| 2026-05-03 23:55 | -32.33571 | -71.20139 | 28843 ft | 449 kts | 350° |
| 2026-05-03 23:55 | -32.30475 | -71.20195 | 29081 ft | 452 kts | 350° |
| 2026-05-03 23:55 | -32.27323 | -71.20255 | 29321 ft | 454 kts | 350° |
| 2026-05-03 23:55 | -32.24161 | -71.20313 | 29539 ft | 456 kts | 351° |
| 2026-05-03 23:56 | -32.20970 | -71.20371 | 29783 ft | 459 kts | 351° |
| 2026-05-03 23:56 | -32.17767 | -71.20430 | 30052 ft | 461 kts | 351° |
| 2026-05-03 23:56 | -32.14548 | -71.20488 | 30295 ft | 463 kts | 351° |
| 2026-05-03 23:56 | -32.11323 | -71.20546 | 30528 ft | 465 kts | 351° |
| 2026-05-03 23:57 | -32.08085 | -71.20608 | 30726 ft | 466 kts | 351° |
| 2026-05-03 23:57 | -32.04836 | -71.20669 | 30983 ft | 466 kts | 350° |
| 2026-05-03 23:57 | -32.01594 | -71.20727 | 31314 ft | 465 kts | 350° |
| 2026-05-03 23:57 | -31.98359 | -71.20780 | 31588 ft | 464 kts | 351° |
| 2026-05-03 23:58 | -31.95135 | -71.20831 | 31877 ft | 463 kts | 350° |
| 2026-05-03 23:58 | -31.91916 | -71.20884 | 32173 ft | 462 kts | 350° |
| 2026-05-03 23:58 | -31.88702 | -71.20942 | 32486 ft | 461 kts | 350° |
| 2026-05-03 23:58 | -31.85497 | -71.21001 | 32805 ft | 459 kts | 350° |
| 2026-05-03 23:59 | -31.82296 | -71.21060 | 33102 ft | 458 kts | 350° |
| 2026-05-03 23:59 | -31.79118 | -71.21118 | 33392 ft | 457 kts | 350° |
| 2026-05-03 23:59 | -31.75929 | -71.21122 | 33686 ft | 458 kts | 352° |
| 2026-05-03 23:59 | -31.72784 | -71.21003 | 33926 ft | 459 kts | 353° |
| 2026-05-04 00:00 | -31.69589 | -71.20792 | 34063 ft | 458 kts | 354° |
| 2026-05-04 00:00 | -31.66424 | -71.20534 | 34091 ft | 454 kts | 354° |
| 2026-05-04 00:00 | -31.60148 | -71.20057 | 34090 ft | 449 kts | 352° |
| 2026-05-04 00:01 | -31.53916 | -71.19846 | 34082 ft | 449 kts | 353° |
| 2026-05-04 00:01 | -31.47664 | -71.19459 | 34084 ft | 450 kts | 354° |
| 2026-05-04 00:02 | -31.41402 | -71.19006 | 34084 ft | 451 kts | 354° |
| 2026-05-04 00:02 | -31.35133 | -71.18584 | 34084 ft | 451 kts | 353° |
| 2026-05-04 00:03 | -31.28877 | -71.18203 | 34083 ft | 450 kts | 353° |
| 2026-05-04 00:03 | -31.22661 | -71.17825 | 34081 ft | 450 kts | 353° |
| 2026-05-04 00:04 | -31.16413 | -71.17437 | 34047 ft | 450 kts | 353° |
| 2026-05-04 00:04 | -31.10157 | -71.17060 | 34052 ft | 450 kts | 353° |
| 2026-05-04 00:05 | -31.03903 | -71.16674 | 34053 ft | 449 kts | 353° |
| 2026-05-04 00:05 | -30.97657 | -71.16288 | 34048 ft | 450 kts | 353° |
| 2026-05-04 00:06 | -30.91403 | -71.15905 | 34021 ft | 450 kts | 353° |
| 2026-05-04 00:06 | -30.85139 | -71.15528 | 34033 ft | 451 kts | 353° |
| 2026-05-04 00:07 | -30.78861 | -71.15149 | 34037 ft | 452 kts | 353° |
| 2026-05-04 00:07 | -30.72626 | -71.14769 | 34035 ft | 452 kts | 353° |
| 2026-05-04 00:08 | -30.66335 | -71.14396 | 34015 ft | 453 kts | 353° |
| 2026-05-04 00:08 | -30.60043 | -71.14027 | 34033 ft | 453 kts | 353° |
| 2026-05-04 00:09 | -30.53740 | -71.13649 | 34043 ft | 453 kts | 353° |
| 2026-05-04 00:09 | -30.47442 | -71.13266 | 34048 ft | 453 kts | 353° |
| 2026-05-04 00:10 | -30.41138 | -71.12888 | 34051 ft | 453 kts | 353° |
| 2026-05-04 00:10 | -30.34844 | -71.12522 | 34026 ft | 453 kts | 353° |
| 2026-05-04 00:11 | -30.28547 | -71.12165 | 34040 ft | 453 kts | 353° |
| 2026-05-04 00:11 | -30.22244 | -71.11779 | 34040 ft | 454 kts | 354° |
| 2026-05-04 00:12 | -30.15920 | -71.11123 | 34048 ft | 458 kts | 356° |
| 2026-05-04 00:12 | -30.09577 | -71.10343 | 34024 ft | 458 kts | 357° |
| 2026-05-04 00:13 | -30.03251 | -71.09613 | 34033 ft | 457 kts | 356° |
| 2026-05-04 00:13 | -29.96912 | -71.08944 | 34031 ft | 457 kts | 356° |
| 2026-05-04 00:14 | -29.90576 | -71.08282 | 34044 ft | 457 kts | 356° |
| 2026-05-04 00:14 | -29.84234 | -71.07608 | 34045 ft | 457 kts | 356° |
| 2026-05-04 00:15 | -29.77902 | -71.06937 | 34041 ft | 457 kts | 356° |
| 2026-05-04 00:15 | -29.71616 | -71.06260 | 34046 ft | 457 kts | 356° |
| 2026-05-04 00:16 | -29.65281 | -71.05580 | 34053 ft | 457 kts | 356° |
| 2026-05-04 00:16 | -29.58949 | -71.04904 | 34050 ft | 457 kts | 356° |
| 2026-05-04 00:17 | -29.52611 | -71.04230 | 34035 ft | 457 kts | 356° |
| 2026-05-04 00:17 | -29.46269 | -71.03564 | 34023 ft | 457 kts | 356° |
| 2026-05-04 00:18 | -29.39924 | -71.02751 | 34044 ft | 461 kts | 359° |
| 2026-05-04 00:18 | -29.33559 | -71.01694 | 34041 ft | 462 kts | 360° |
| 2026-05-04 00:19 | -29.27192 | -71.00630 | 34008 ft | 462 kts | 359° |
| 2026-05-04 00:19 | -29.20835 | -70.99849 | 34015 ft | 458 kts | 355° |
| 2026-05-04 00:20 | -29.14489 | -70.99348 | 34023 ft | 456 kts | 355° |
| 2026-05-04 00:20 | -29.08189 | -70.98847 | 34023 ft | 457 kts | 355° |
| 2026-05-04 00:21 | -29.01834 | -70.98260 | 34029 ft | 458 kts | 356° |
| 2026-05-04 00:21 | -28.95480 | -70.97638 | 34016 ft | 458 kts | 356° |
| 2026-05-04 00:22 | -28.89134 | -70.97029 | 34024 ft | 458 kts | 356° |
| 2026-05-04 00:22 | -28.82787 | -70.96442 | 34030 ft | 457 kts | 356° |
| 2026-05-04 00:23 | -28.76438 | -70.95858 | 34039 ft | 458 kts | 355° |
| 2026-05-04 00:23 | -28.70093 | -70.95265 | 34018 ft | 457 kts | 356° |
| 2026-05-04 00:24 | -28.63749 | -70.94664 | 34037 ft | 457 kts | 356° |
| 2026-05-04 00:24 | -28.57415 | -70.94076 | 34048 ft | 457 kts | 356° |
| 2026-05-04 00:25 | -28.51078 | -70.93487 | 34046 ft | 457 kts | 356° |
| 2026-05-04 00:25 | -28.44783 | -70.92879 | 34028 ft | 457 kts | 356° |
| 2026-05-04 00:26 | -28.38450 | -70.92215 | 34044 ft | 457 kts | 357° |
| 2026-05-04 00:26 | -28.32114 | -70.91540 | 34051 ft | 456 kts | 356° |
| 2026-05-04 00:27 | -28.25794 | -70.90883 | 34055 ft | 456 kts | 356° |
| 2026-05-04 00:27 | -28.20538 | -70.90328 | 34053 ft | 456 kts | 357° |
| 2026-05-04 00:28 | -28.14216 | -70.89648 | 34032 ft | 456 kts | 357° |
| 2026-05-04 00:28 | -28.07909 | -70.88970 | 34052 ft | 455 kts | 357° |
| 2026-05-04 00:29 | -28.01607 | -70.88297 | 34051 ft | 455 kts | 357° |
| 2026-05-04 00:29 | -27.95311 | -70.87632 | 34055 ft | 454 kts | 357° |
| 2026-05-04 00:30 | -27.89016 | -70.86967 | 34049 ft | 454 kts | 357° |
| 2026-05-04 00:30 | -27.82726 | -70.86299 | 34033 ft | 453 kts | 357° |
| 2026-05-04 00:31 | -27.76453 | -70.85633 | 34043 ft | 452 kts | 357° |
| 2026-05-04 00:31 | -27.70186 | -70.84970 | 34047 ft | 452 kts | 357° |
| 2026-05-04 00:32 | -27.63969 | -70.84314 | 34048 ft | 451 kts | 357° |
| 2026-05-04 00:32 | -27.57717 | -70.83658 | 34024 ft | 451 kts | 358° |
| 2026-05-04 00:33 | -27.48376 | -70.82669 | 34052 ft | 448 kts | 358° |
| 2026-05-04 00:34 | -27.42180 | -70.82026 | 34048 ft | 447 kts | 358° |
| 2026-05-04 00:34 | -27.35990 | -70.81382 | 34046 ft | 447 kts | 358° |
| 2026-05-04 00:35 | -27.29799 | -70.80728 | 34023 ft | 446 kts | 358° |
| 2026-05-04 00:35 | -27.23614 | -70.80071 | 34024 ft | 446 kts | 358° |
| 2026-05-04 00:36 | -27.17435 | -70.79425 | 34025 ft | 446 kts | 358° |
| 2026-05-04 00:36 | -27.11252 | -70.78786 | 34026 ft | 446 kts | 358° |
| 2026-05-04 00:37 | -27.05076 | -70.78147 | 34023 ft | 446 kts | 358° |
| 2026-05-04 00:37 | -26.98899 | -70.77498 | 34027 ft | 446 kts | 358° |
| 2026-05-04 00:38 | -26.92727 | -70.76851 | 34023 ft | 446 kts | 358° |
| 2026-05-04 00:38 | -26.86547 | -70.76204 | 34023 ft | 446 kts | 358° |
| 2026-05-04 00:39 | -26.80408 | -70.75568 | 34024 ft | 446 kts | 358° |
| 2026-05-04 00:39 | -26.74225 | -70.74934 | 34025 ft | 446 kts | 358° |
| 2026-05-04 00:40 | -26.68033 | -70.74285 | 33999 ft | 447 kts | 358° |
| 2026-05-04 00:40 | -26.61846 | -70.73454 | 34004 ft | 450 kts | 1° |
| 2026-05-04 00:41 | -26.55658 | -70.72329 | 34010 ft | 451 kts | 2° |
| 2026-05-04 00:41 | -26.49463 | -70.71182 | 34016 ft | 451 kts | 2° |
| 2026-05-04 00:42 | -26.43266 | -70.70134 | 34012 ft | 449 kts | 360° |
| 2026-05-04 00:42 | -26.37112 | -70.69513 | 34022 ft | 445 kts | 357° |
| 2026-05-04 00:43 | -26.30932 | -70.69108 | 34023 ft | 445 kts | 357° |
| 2026-05-04 00:43 | -26.24753 | -70.68648 | 34025 ft | 445 kts | 358° |
| 2026-05-04 00:44 | -26.18575 | -70.68104 | 34027 ft | 445 kts | 358° |
| 2026-05-04 00:44 | -26.12404 | -70.67539 | 34005 ft | 445 kts | 359° |
| 2026-05-04 00:45 | -26.06230 | -70.66984 | 34015 ft | 444 kts | 359° |
| 2026-05-04 00:45 | -26.00064 | -70.66445 | 34023 ft | 444 kts | 358° |
| 2026-05-04 00:46 | -25.93900 | -70.65911 | 34025 ft | 444 kts | 359° |
| 2026-05-04 00:46 | -25.87735 | -70.65366 | 34024 ft | 444 kts | 358° |
| 2026-05-04 00:47 | -25.81622 | -70.64820 | 34018 ft | 444 kts | 359° |
| 2026-05-04 00:47 | -25.75465 | -70.64284 | 34033 ft | 443 kts | 358° |
| 2026-05-04 00:48 | -25.69321 | -70.63757 | 34033 ft | 442 kts | 359° |
| 2026-05-04 00:48 | -25.63177 | -70.63223 | 34031 ft | 442 kts | 359° |
| 2026-05-04 00:49 | -25.57048 | -70.62690 | 34024 ft | 441 kts | 359° |
| 2026-05-04 00:49 | -25.50926 | -70.62157 | 33996 ft | 441 kts | 359° |
| 2026-05-04 00:50 | -25.44805 | -70.61631 | 33999 ft | 441 kts | 359° |
| 2026-05-04 00:50 | -25.38674 | -70.61108 | 33995 ft | 442 kts | 359° |
| 2026-05-04 00:51 | -25.32576 | -70.60578 | 33984 ft | 442 kts | 359° |
| 2026-05-04 00:51 | -25.26434 | -70.60043 | 33990 ft | 442 kts | 359° |
| 2026-05-04 00:52 | -25.20287 | -70.59512 | 33975 ft | 444 kts | 359° |
| 2026-05-04 00:52 | -25.14126 | -70.58977 | 33979 ft | 445 kts | 359° |
| 2026-05-04 00:53 | -25.07950 | -70.58449 | 33978 ft | 445 kts | 359° |
| 2026-05-04 00:53 | -25.01762 | -70.57918 | 33984 ft | 446 kts | 359° |
| 2026-05-04 00:54 | -24.95571 | -70.57389 | 33988 ft | 447 kts | 359° |
| 2026-05-04 00:54 | -24.89375 | -70.56850 | 33987 ft | 446 kts | 359° |
| 2026-05-04 00:55 | -24.83183 | -70.56314 | 33985 ft | 446 kts | 359° |
| 2026-05-04 00:55 | -24.76993 | -70.55908 | 33985 ft | 444 kts | 355° |
| 2026-05-04 00:56 | -24.70833 | -70.55958 | 33987 ft | 442 kts | 353° |
| 2026-05-04 00:56 | -24.64724 | -70.56137 | 33975 ft | 442 kts | 354° |
| 2026-05-04 00:57 | -24.58582 | -70.56231 | 33979 ft | 441 kts | 354° |
| 2026-05-04 00:57 | -24.52439 | -70.56251 | 33984 ft | 441 kts | 355° |
| 2026-05-04 00:58 | -24.46302 | -70.56264 | 33990 ft | 441 kts | 355° |
| 2026-05-04 00:58 | -24.40164 | -70.56300 | 33991 ft | 441 kts | 354° |
| 2026-05-04 00:59 | -24.34026 | -70.56340 | 33985 ft | 441 kts | 355° |
| 2026-05-04 00:59 | -24.27890 | -70.56379 | 33994 ft | 441 kts | 355° |
| 2026-05-04 01:00 | -24.21763 | -70.56425 | 33999 ft | 440 kts | 355° |
| 2026-05-04 01:00 | -24.15633 | -70.56465 | 34001 ft | 440 kts | 355° |
| 2026-05-04 01:01 | -24.09554 | -70.56493 | 34007 ft | 440 kts | 355° |
| 2026-05-04 01:01 | -24.03438 | -70.56526 | 34004 ft | 439 kts | 355° |
| 2026-05-04 01:02 | -23.97320 | -70.56562 | 34007 ft | 440 kts | 355° |
| 2026-05-04 01:02 | -23.91200 | -70.56607 | 34007 ft | 440 kts | 355° |
| 2026-05-04 01:03 | -23.85082 | -70.56646 | 34007 ft | 440 kts | 355° |
| 2026-05-04 01:03 | -23.78958 | -70.56686 | 34006 ft | 440 kts | 355° |
| 2026-05-04 01:04 | -23.72829 | -70.56680 | 33996 ft | 440 kts | 356° |
| 2026-05-04 01:04 | -23.66698 | -70.56633 | 34001 ft | 441 kts | 356° |
| 2026-05-04 01:05 | -23.60567 | -70.56588 | 34006 ft | 441 kts | 355° |
| 2026-05-04 01:05 | -23.54472 | -70.56559 | 34011 ft | 441 kts | 355° |
| 2026-05-04 01:06 | -23.48341 | -70.56544 | 34011 ft | 440 kts | 355° |
| 2026-05-04 01:06 | -23.42201 | -70.56525 | 34002 ft | 441 kts | 355° |
| 2026-05-04 01:07 | -23.36063 | -70.56498 | 34003 ft | 441 kts | 355° |
| 2026-05-04 01:07 | -23.29917 | -70.56467 | 34002 ft | 441 kts | 355° |
| 2026-05-04 01:08 | -23.23771 | -70.56438 | 34001 ft | 442 kts | 355° |
| 2026-05-04 01:08 | -23.17628 | -70.56412 | 33995 ft | 442 kts | 355° |
| 2026-05-04 01:09 | -23.11475 | -70.56385 | 33984 ft | 442 kts | 355° |
| 2026-05-04 01:09 | -23.05364 | -70.56359 | 33988 ft | 442 kts | 355° |
| 2026-05-04 01:10 | -22.99214 | -70.56337 | 33993 ft | 442 kts | 355° |
| 2026-05-04 01:10 | -22.93066 | -70.56308 | 33994 ft | 442 kts | 355° |
| 2026-05-04 01:11 | -22.86905 | -70.56106 | 33998 ft | 445 kts | 1° |
| 2026-05-04 01:11 | -22.80730 | -70.55452 | 33986 ft | 445 kts | 0° |
| 2026-05-04 01:12 | -22.74601 | -70.54798 | 34005 ft | 446 kts | 0° |
| 2026-05-04 01:12 | -22.68421 | -70.54145 | 33997 ft | 446 kts | 0° |
| 2026-05-04 01:13 | -22.62247 | -70.53496 | 33995 ft | 446 kts | 0° |
| 2026-05-04 01:13 | -22.56062 | -70.52834 | 34001 ft | 446 kts | 0° |
| 2026-05-04 01:14 | -22.49880 | -70.52177 | 33999 ft | 446 kts | 0° |
| 2026-05-04 01:14 | -22.43695 | -70.51528 | 34011 ft | 446 kts | 0° |
| 2026-05-04 01:15 | -22.37507 | -70.50880 | 34002 ft | 446 kts | 0° |
| 2026-05-04 01:15 | -22.31326 | -70.50229 | 34008 ft | 448 kts | 0° |
| 2026-05-04 01:16 | -22.25039 | -70.49572 | 34029 ft | 457 kts | 0° |
| 2026-05-04 01:16 | -22.18699 | -70.48901 | 34031 ft | 458 kts | 0° |
| 2026-05-04 01:17 | -22.12395 | -70.48246 | 34029 ft | 458 kts | 0° |
| 2026-05-04 01:17 | -22.06006 | -70.47581 | 34031 ft | 458 kts | 0° |
| 2026-05-04 01:18 | -21.99707 | -70.46929 | 34030 ft | 458 kts | 0° |
| 2026-05-04 01:18 | -21.93366 | -70.46261 | 34026 ft | 458 kts | 0° |
| 2026-05-04 01:19 | -21.87022 | -70.45589 | 34017 ft | 458 kts | 0° |
| 2026-05-04 01:19 | -21.80678 | -70.44924 | 34022 ft | 458 kts | 0° |
| 2026-05-04 01:20 | -21.74333 | -70.44268 | 34029 ft | 458 kts | 0° |
| 2026-05-04 01:20 | -21.69103 | -70.43723 | 33577 ft | 444 kts | 0° |
| 2026-05-04 01:20 | -21.66054 | -70.43401 | 33096 ft | 438 kts | 1° |
| 2026-05-04 01:21 | -21.63036 | -70.43081 | 32595 ft | 434 kts | 1° |
| 2026-05-04 01:21 | -21.60071 | -70.42768 | 32115 ft | 431 kts | 1° |
| 2026-05-04 01:21 | -21.57106 | -70.42459 | 31618 ft | 427 kts | 2° |
| 2026-05-04 01:21 | -21.54157 | -70.42154 | 31143 ft | 424 kts | 2° |
| 2026-05-04 01:22 | -21.51236 | -70.41853 | 30679 ft | 420 kts | 2° |
| 2026-05-04 01:22 | -21.48335 | -70.41552 | 30229 ft | 417 kts | 3° |
| 2026-05-04 01:22 | -21.45451 | -70.41254 | 29726 ft | 414 kts | 3° |
| 2026-05-04 01:22 | -21.42592 | -70.40961 | 29213 ft | 411 kts | 3° |
| 2026-05-04 01:23 | -21.39755 | -70.40671 | 28719 ft | 408 kts | 3° |
| 2026-05-04 01:23 | -21.36940 | -70.40383 | 28237 ft | 405 kts | 3° |
| 2026-05-04 01:23 | -21.34150 | -70.40095 | 27876 ft | 399 kts | 3° |
| 2026-05-04 01:23 | -21.31429 | -70.39809 | 27742 ft | 386 kts | 3° |
| 2026-05-04 01:24 | -21.28830 | -70.39532 | 27536 ft | 367 kts | 3° |
| 2026-05-04 01:24 | -21.26328 | -70.39264 | 27057 ft | 356 kts | 3° |
| 2026-05-04 01:24 | -21.23888 | -70.39009 | 26506 ft | 349 kts | 3° |
| 2026-05-04 01:24 | -21.21486 | -70.38764 | 25943 ft | 344 kts | 3° |
| 2026-05-04 01:25 | -21.19152 | -70.38526 | 25387 ft | 339 kts | 3° |
| 2026-05-04 01:25 | -21.16822 | -70.38287 | 24836 ft | 334 kts | 3° |
| 2026-05-04 01:25 | -21.14522 | -70.38051 | 24298 ft | 330 kts | 3° |
| 2026-05-04 01:25 | -21.12250 | -70.37818 | 23780 ft | 326 kts | 3° |
| 2026-05-04 01:26 | -21.09979 | -70.37582 | 23190 ft | 322 kts | 4° |
| 2026-05-04 01:26 | -21.07797 | -70.37356 | 22611 ft | 318 kts | 4° |
| 2026-05-04 01:26 | -21.05609 | -70.37129 | 22036 ft | 314 kts | 4° |
| 2026-05-04 01:26 | -21.03447 | -70.36906 | 21473 ft | 311 kts | 4° |
| 2026-05-04 01:27 | -21.01306 | -70.36687 | 20929 ft | 308 kts | 4° |
| 2026-05-04 01:27 | -20.99183 | -70.36469 | 20392 ft | 305 kts | 4° |
| 2026-05-04 01:27 | -20.97083 | -70.36253 | 19872 ft | 302 kts | 4° |
| 2026-05-04 01:27 | -20.94999 | -70.36039 | 19371 ft | 299 kts | 5° |
| 2026-05-04 01:28 | -20.92934 | -70.35826 | 18878 ft | 297 kts | 5° |
| 2026-05-04 01:28 | -20.90885 | -70.35615 | 18394 ft | 295 kts | 5° |
| 2026-05-04 01:28 | -20.88848 | -70.35405 | 17843 ft | 293 kts | 5° |
| 2026-05-04 01:28 | -20.86821 | -70.35197 | 17293 ft | 292 kts | 5° |
| 2026-05-04 01:29 | -20.84807 | -70.34976 | 16748 ft | 290 kts | 4° |
| 2026-05-04 01:29 | -20.82824 | -70.35176 | 16223 ft | 286 kts | 338° |
| 2026-05-04 01:29 | -20.81164 | -70.36271 | 15694 ft | 280 kts | 310° |
| 2026-05-04 01:29 | -20.80178 | -70.38017 | 15144 ft | 273 kts | 282° |
| 2026-05-04 01:30 | -20.80074 | -70.39999 | 14611 ft | 266 kts | 253° |
| 2026-05-04 01:30 | -20.80850 | -70.41731 | 14095 ft | 257 kts | 224° |
| 2026-05-04 01:30 | -20.82253 | -70.42807 | 13567 ft | 252 kts | 201° |
| 2026-05-04 01:30 | -20.83891 | -70.43486 | 12996 ft | 252 kts | 198° |
| 2026-05-04 01:31 | -20.85550 | -70.44098 | 12476 ft | 252 kts | 197° |
| 2026-05-04 01:31 | -20.87206 | -70.44696 | 11973 ft | 251 kts | 197° |
| 2026-05-04 01:31 | -20.88856 | -70.45290 | 11482 ft | 249 kts | 197° |
| 2026-05-04 01:31 | -20.90493 | -70.45879 | 10989 ft | 248 kts | 197° |
| 2026-05-04 01:32 | -20.92157 | -70.46276 | 10491 ft | 243 kts | 176° |
| 2026-05-04 01:32 | -20.93745 | -70.45798 | 9998 ft | 238 kts | 146° |
| 2026-05-04 01:32 | -20.94849 | -70.44506 | 9437 ft | 239 kts | 115° |
| 2026-05-04 01:32 | -20.95151 | -70.42769 | 8857 ft | 242 kts | 84° |
| 2026-05-04 01:33 | -20.94552 | -70.41101 | 8294 ft | 245 kts | 52° |
| 2026-05-04 01:33 | -20.93219 | -70.39985 | 7755 ft | 246 kts | 25° |
| 2026-05-04 01:33 | -20.91629 | -70.39296 | 7218 ft | 246 kts | 25° |
| 2026-05-04 01:33 | -20.90125 | -70.38450 | 6739 ft | 243 kts | 32° |
| 2026-05-04 01:34 | -20.88716 | -70.37480 | 6275 ft | 240 kts | 34° |
| 2026-05-04 01:34 | -20.87361 | -70.36523 | 6069 ft | 236 kts | 33° |
| 2026-05-04 01:34 | -20.86026 | -70.35577 | 6042 ft | 217 kts | 34° |
| 2026-05-04 01:34 | -20.84796 | -70.34712 | 6016 ft | 212 kts | 31° |
| 2026-05-04 01:35 | -20.83463 | -70.34077 | 5622 ft | 209 kts | 19° |
| 2026-05-04 01:35 | -20.82076 | -70.33633 | 5213 ft | 207 kts | 14° |
| 2026-05-04 01:35 | -20.80743 | -70.33283 | 5111 ft | 187 kts | 13° |
| 2026-05-04 01:35 | -20.79540 | -70.32961 | 4970 ft | 170 kts | 14° |
| 2026-05-04 01:36 | -20.78422 | -70.32644 | 4700 ft | 164 kts | 14° |
| 2026-05-04 01:36 | -20.77333 | -70.32318 | 4355 ft | 162 kts | 17° |
| 2026-05-04 01:36 | -20.76283 | -70.31894 | 3999 ft | 161 kts | 25° |
| 2026-05-04 01:36 | -20.75319 | -70.31301 | 3662 ft | 160 kts | 34° |
| 2026-05-04 01:37 | -20.74453 | -70.30560 | 3320 ft | 159 kts | 43° |
| 2026-05-04 01:37 | -20.73706 | -70.29702 | 3059 ft | 154 kts | 51° |
| 2026-05-04 01:37 | -20.73079 | -70.28750 | 3043 ft | 158 kts | 56° |
| 2026-05-04 01:37 | -20.72483 | -70.27763 | 3049 ft | 158 kts | 56° |
| 2026-05-04 01:38 | -20.71885 | -70.26776 | 3052 ft | 157 kts | 56° |
| 2026-05-04 01:38 | -20.71301 | -70.25807 | 3045 ft | 154 kts | 56° |
| 2026-05-04 01:38 | -20.70722 | -70.24849 | 3043 ft | 153 kts | 56° |
| 2026-05-04 01:38 | -20.70149 | -70.23900 | 2960 ft | 150 kts | 56° |
| 2026-05-04 01:39 | -20.69576 | -70.22950 | 2651 ft | 153 kts | 57° |
| 2026-05-04 01:39 | -20.69000 | -70.21997 | 2379 ft | 150 kts | 57° |
| 2026-05-04 01:39 | -20.68437 | -70.21064 | 2354 ft | 151 kts | 57° |
| 2026-05-04 01:39 | -20.67784 | -70.20186 | 2346 ft | 151 kts | 44° |
| 2026-05-04 01:40 | -20.66955 | -70.19486 | 2337 ft | 153 kts | 31° |
| 2026-05-04 01:40 | -20.65980 | -70.19014 | 2310 ft | 157 kts | 16° |
| 2026-05-04 01:40 | -20.64900 | -70.18731 | 2186 ft | 159 kts | 10° |
| 2026-05-04 01:40 | -20.63837 | -70.18593 | 1958 ft | 149 kts | 1° |
| 2026-05-04 01:41 | -20.62829 | -70.18606 | 1701 ft | 144 kts | 354° |
| 2026-05-04 01:41 | -20.61739 | -70.18661 | 1648 ft | 159 kts | 0° |
| 2026-05-04 01:41 | -20.60677 | -70.18591 | 1394 ft | 152 kts | 5° |
| 2026-05-04 01:41 | -20.59611 | -70.18479 | 1068 ft | 154 kts | 4° |
| 2026-05-04 01:42 | -20.58549 | -70.18412 | 915 ft | 153 kts | 1° |
| 2026-05-04 01:42 | -20.57488 | -70.18362 | 748 ft | 151 kts | 3° |
| 2026-05-04 01:42 | -20.56435 | -70.18294 | 541 ft | 155 kts | 4° |
| 2026-05-04 01:42 | -20.55370 | -70.18232 | 251 ft | 152 kts | 3° |
| 2026-05-04 01:43 | -20.54404 | -70.18177 | 147 ft | 123 kts | 3° |
| 2026-05-04 01:43 | -20.53725 | -70.18138 | 128 ft | 74 kts | 4° |
| 2026-05-04 01:43 | -20.53381 | -70.18122 | 122 ft | 25 kts | 2° |
| 2026-05-04 01:43 | -20.53318 | -70.18116 | 123 ft | 10 kts | 16° |
| 2026-05-04 01:44 | -20.53255 | -70.18112 | 120 ft | 6 kts | 298° |
| 2026-05-04 01:44 | -20.53274 | -70.18130 | 121 ft | 8 kts | 195° |
| 2026-05-04 01:44 | -20.53332 | -70.18125 | 119 ft | 11 kts | 173° |
| 2026-05-04 01:44 | -20.53431 | -70.18124 | 125 ft | 19 kts | 182° |
| 2026-05-04 01:45 | -20.53536 | -70.18126 | 125 ft | 12 kts | 163° |
| 2026-05-04 01:45 | -20.53567 | -70.18045 | 127 ft | 13 kts | 91° |
| 2026-05-04 01:45 | -20.53653 | -70.17959 | 129 ft | 10 kts | 184° |
| 2026-05-04 01:46 | -20.53746 | -70.17966 | 132 ft | 17 kts | 183° |
| 2026-05-04 01:46 | -20.53893 | -70.17972 | 135 ft | 25 kts | 183° |
| 2026-05-04 01:46 | -20.54070 | -70.17982 | 138 ft | 26 kts | 183° |
| 2026-05-04 01:46 | -20.54253 | -70.17992 | 142 ft | 27 kts | 183° |
| 2026-05-04 01:47 | -20.54439 | -70.18001 | 146 ft | 27 kts | 182° |
| 2026-05-04 01:47 | -20.54623 | -70.18012 | 149 ft | 11 kts | 184° |
| 2026-05-04 01:47 | -20.54668 | -70.18012 | 150 ft | 5 kts | 182° |
| 2026-05-04 01:47 | -20.54695 | -70.18014 | 151 ft | 3 kts | 185° |
| 2026-05-04 01:48 | -20.54728 | -70.17987 | 151 ft | 6 kts | 86° |
| 2026-05-04 01:48 | -20.54725 | -70.17948 | 151 ft | 5 kts | 90° |
| 2026-05-04 01:48 | -20.54727 | -70.17914 | 151 ft | 3 kts | 93° |
| 2026-05-04 01:48 | -20.54727 | -70.17909 | 151 ft | 0 kts | 93° |